createdAt,value
2023-04-24T00:01:59.473Z,0.20
2023-04-24T00:04:30.177Z,0.17
2023-04-24T00:06:58.264Z,0.10
2023-04-24T00:09:25.407Z,0.20
2023-04-24T00:11:56.017Z,0.10
2023-04-24T00:14:31.848Z,0.13
2023-04-24T00:17:04.185Z,0.10
2023-04-24T00:19:37.935Z,0.10
2023-04-24T00:22:04.921Z,0.13
2023-04-24T00:24:38.768Z,0.28
2023-04-24T00:27:11.043Z,0.15
2023-04-24T00:29:40.430Z,0.30
2023-04-24T00:32:07.585Z,0.13
2023-04-24T00:34:39.108Z,0.10
2023-04-24T00:37:06.317Z,0.30
2023-04-24T00:39:36.841Z,0.25
2023-04-24T00:42:03.823Z,0.20
2023-04-24T00:44:33.288Z,0.20
2023-04-24T00:47:05.123Z,0.10
2023-04-24T00:49:34.887Z,0.20
2023-04-24T00:52:02.061Z,0.10
2023-04-24T00:54:29.080Z,0.15
2023-04-24T00:56:58.425Z,0.10
2023-04-24T00:59:25.728Z,0.10
2023-04-24T01:01:59.167Z,0.10
2023-04-24T01:04:27.361Z,0.10
2023-04-24T01:07:01.465Z,0.20
2023-04-24T01:09:28.475Z,0.17
2023-04-24T01:11:55.997Z,0.10
2023-04-24T01:14:30.157Z,0.10
2023-04-24T01:17:08.476Z,0.20
2023-04-24T01:19:38.228Z,0.30
2023-04-24T01:22:15.644Z,0.13
2023-04-24T01:24:49.457Z,0.10
2023-04-24T01:27:24.318Z,0.10
2023-04-24T01:29:52.975Z,0.10
2023-04-24T01:32:24.168Z,0.13
2023-04-24T01:34:57.895Z,0.17
2023-04-24T01:37:27.272Z,0.10
2023-04-24T01:39:54.582Z,0.10
2023-04-24T01:42:23.877Z,0.13
2023-04-24T01:44:55.229Z,0.22
2023-04-24T01:47:22.883Z,0.10
2023-04-24T01:52:19.884Z,0.13
2023-04-24T01:54:46.804Z,0.08
2023-04-24T01:57:15.032Z,0.00
2023-04-24T01:59:44.297Z,0.10
2023-04-24T02:02:16.642Z,0.00
2023-04-24T02:04:43.765Z,0.20
2023-04-24T02:07:13.152Z,0.20
2023-04-24T02:09:45.971Z,0.10
2023-04-24T02:12:12.993Z,0.10
2023-04-24T02:14:45.895Z,0.10
2023-04-24T02:17:16.716Z,0.10
2023-04-24T02:19:44.100Z,0.08
2023-04-24T02:22:13.996Z,0.00
2023-04-24T02:24:41.065Z,0.10
2023-04-24T02:27:08.159Z,0.30
2023-04-24T02:29:37.153Z,0.13
2023-04-24T02:32:07.582Z,0.05
2023-04-24T02:34:34.600Z,0.08
2023-04-24T02:37:02.797Z,0.00
2023-04-24T02:39:32.465Z,0.15
2023-04-24T02:42:05.358Z,0.20
2023-04-24T02:44:36.701Z,0.10
2023-04-24T02:47:04.528Z,0.10
2023-04-24T02:49:31.550Z,0.20
2023-04-24T02:52:04.237Z,0.15
2023-04-24T02:54:32.401Z,0.17
2023-04-24T02:57:02.438Z,0.15
2023-04-24T02:59:30.157Z,0.10
2023-04-24T03:01:58.219Z,0.10
2023-04-24T03:04:28.764Z,0.20
2023-04-24T03:06:58.608Z,0.15
2023-04-24T03:09:25.525Z,0.10
2023-04-24T03:11:52.416Z,0.20
2023-04-24T03:14:19.321Z,0.20
2023-04-24T03:19:54.198Z,0.10
2023-04-24T03:22:46.059Z,0.10
2023-04-24T03:25:19.471Z,0.10
2023-04-24T03:27:51.992Z,0.10
2023-04-24T03:30:19.090Z,0.15
2023-04-24T03:32:46.069Z,0.20
2023-04-24T03:35:15.040Z,0.10
2023-04-24T03:37:45.912Z,0.20
2023-04-24T03:40:13.232Z,0.20
2023-04-24T03:42:44.532Z,0.20
2023-04-24T03:45:14.493Z,0.10
2023-04-24T03:47:41.526Z,0.15
2023-04-24T03:50:11.731Z,0.10
2023-04-24T03:52:40.084Z,0.17
2023-04-24T03:55:10.737Z,0.10
2023-04-24T03:57:37.641Z,0.17
2023-04-24T04:00:08.648Z,0.25
2023-04-24T04:02:38.203Z,0.10
2023-04-24T04:05:06.110Z,0.17
2023-04-24T04:07:33.046Z,0.15
2023-04-24T04:10:02.448Z,0.30
2023-04-24T04:12:32.613Z,0.20
2023-04-24T04:15:02.000Z,0.17
2023-04-24T04:17:28.965Z,0.20
2023-04-24T04:20:00.330Z,0.10
2023-04-24T04:22:29.396Z,0.20
2023-04-24T04:24:59.606Z,0.20
2023-04-24T04:27:30.373Z,0.20
2023-04-24T04:30:04.788Z,0.20
2023-04-24T04:32:38.132Z,0.20
2023-04-24T04:35:05.894Z,0.32
2023-04-24T04:37:36.455Z,0.22
2023-04-24T04:40:08.041Z,0.20
2023-04-24T04:42:39.711Z,0.17
2023-04-24T04:45:12.774Z,0.30
2023-04-24T04:47:43.362Z,0.20
2023-04-24T04:50:14.386Z,0.30
2023-04-24T04:52:44.403Z,0.20
2023-04-24T04:55:12.236Z,0.20
2023-04-24T04:57:39.302Z,0.30
2023-04-24T05:00:08.175Z,0.20
2023-04-24T05:02:35.118Z,0.20
2023-04-24T05:05:02.205Z,0.13
2023-04-24T05:07:48.619Z,0.30
2023-04-24T05:10:15.758Z,0.25
2023-04-24T05:12:44.458Z,0.20
2023-04-24T05:15:13.253Z,0.30
2023-04-24T05:17:41.644Z,0.30
2023-04-24T05:20:09.486Z,0.30
2023-04-24T05:22:36.819Z,0.32
2023-04-24T05:25:03.930Z,0.40
2023-04-24T05:27:30.974Z,0.93
2023-04-24T05:29:57.809Z,0.57
2023-04-24T05:32:25.025Z,0.90
2023-04-24T05:34:51.886Z,0.73
2023-04-24T05:37:18.826Z,0.68
2023-04-24T05:39:49.898Z,0.60
2023-04-24T05:42:16.805Z,1.00
2023-04-24T05:44:43.743Z,0.82
2023-04-24T05:47:12.081Z,0.90
2023-04-24T05:49:41.259Z,0.63
2023-04-24T05:52:09.809Z,0.60
2023-04-24T05:54:39.458Z,0.50
2023-04-24T05:57:08.750Z,0.70
2023-04-24T05:59:42.225Z,0.50
2023-04-24T06:02:09.480Z,0.40
2023-04-24T06:04:36.713Z,0.40
2023-04-24T06:07:03.910Z,0.43
2023-04-24T06:09:30.809Z,0.40
2023-04-24T06:11:58.438Z,0.60
2023-04-24T06:16:52.240Z,0.40
2023-04-24T06:19:19.245Z,0.55
2023-04-24T06:21:46.206Z,0.40
2023-04-24T06:24:17.510Z,0.47
2023-04-24T06:26:44.514Z,0.50
2023-04-24T06:29:11.645Z,0.45
2023-04-24T06:31:38.541Z,0.50
2023-04-24T06:34:06.028Z,0.43
2023-04-24T06:36:35.457Z,0.52
2023-04-24T06:39:02.855Z,0.43
2023-04-24T06:41:30.584Z,0.40
2023-04-24T06:46:27.121Z,0.40
2023-04-24T06:48:58.208Z,0.38
2023-04-24T06:51:27.064Z,0.50
2023-04-24T06:53:55.426Z,0.50
2023-04-24T06:56:23.492Z,0.45
2023-04-24T06:58:50.633Z,0.40
2023-04-24T07:01:20.821Z,0.50
2023-04-24T07:03:47.945Z,0.30
2023-04-24T07:06:15.495Z,0.20
2023-04-24T07:08:43.403Z,0.20
2023-04-24T07:11:10.298Z,0.30
2023-04-24T07:13:37.156Z,0.30
2023-04-24T07:16:04.269Z,0.47
2023-04-24T07:18:31.459Z,0.50
2023-04-24T07:20:58.691Z,0.40
2023-04-24T07:23:25.785Z,0.30
2023-04-24T07:25:52.722Z,0.25
2023-04-24T07:28:19.606Z,0.45
2023-04-24T07:30:46.755Z,0.63
2023-04-24T07:33:14.461Z,0.60
2023-04-24T07:35:41.469Z,0.30
2023-04-24T07:38:10.733Z,0.52
2023-04-24T07:40:37.635Z,0.40
2023-04-24T07:43:08.777Z,0.40
2023-04-24T07:45:38.411Z,0.47
2023-04-24T07:48:07.243Z,0.40
2023-04-24T07:50:37.344Z,0.50
2023-04-24T07:53:04.286Z,0.55
2023-04-24T07:55:31.207Z,0.40
2023-04-24T07:57:58.077Z,0.60
2023-04-24T08:00:24.901Z,0.70
2023-04-24T08:02:54.429Z,0.60
2023-04-24T08:05:21.809Z,0.50
2023-04-24T08:07:51.253Z,0.35
2023-04-24T08:10:18.109Z,0.40
2023-04-24T08:12:45.065Z,0.50
2023-04-24T08:15:12.021Z,0.30
2023-04-24T08:17:38.916Z,0.50
2023-04-24T08:20:07.038Z,0.35
2023-04-24T08:22:34.108Z,0.47
2023-04-24T08:25:01.706Z,0.40
2023-04-24T08:29:56.226Z,0.50
2023-04-24T08:32:23.024Z,0.43
2023-04-24T08:35:00.435Z,0.37
2023-04-24T08:37:28.766Z,0.60
2023-04-24T08:39:55.947Z,0.57
2023-04-24T08:42:31.121Z,0.32
2023-04-24T08:44:58.916Z,0.47
2023-04-24T08:47:29.622Z,0.47
2023-04-24T08:49:58.382Z,0.30
2023-04-24T08:52:26.984Z,0.47
2023-04-24T08:54:55.986Z,0.57
2023-04-24T08:57:23.700Z,0.63
2023-04-24T08:59:50.667Z,0.70
2023-04-24T10:02:04.357Z,0.20
2023-04-24T10:04:31.276Z,0.30
2023-04-24T10:06:59.152Z,0.30
2023-04-24T10:09:27.761Z,0.20
2023-04-24T10:11:56.067Z,0.30
2023-04-24T10:14:26.098Z,0.20
2023-04-24T10:16:57.576Z,0.20
2023-04-24T10:19:27.590Z,0.20
2023-04-24T10:21:57.085Z,0.20
2023-04-24T10:24:23.900Z,0.20
2023-04-24T10:26:50.942Z,0.13
2023-04-24T10:29:20.412Z,0.30
2023-04-24T10:31:48.335Z,0.30
2023-04-24T10:34:19.185Z,0.20
2023-04-24T10:36:58.343Z,0.30
2023-04-24T10:39:27.210Z,0.10
2023-04-24T10:41:59.254Z,0.20
2023-04-24T10:44:28.099Z,0.20
2023-04-24T10:46:57.422Z,0.22
2023-04-24T10:49:32.911Z,0.10
2023-04-24T10:52:06.939Z,0.35
2023-04-24T10:54:45.103Z,0.30
2023-04-24T10:57:23.830Z,0.30
2023-04-24T11:00:11.000Z,0.30
2023-04-24T11:46:31.304Z,0.40
2023-04-24T11:49:04.282Z,0.52
2023-04-24T11:51:44.547Z,0.50
2023-04-24T11:54:19.808Z,0.28
2023-04-24T11:56:52.769Z,0.32
2023-04-24T11:59:29.149Z,0.70
2023-04-24T12:10:12.194Z,0.40
2023-04-24T12:45:42.245Z,0.32
2023-04-24T12:48:12.634Z,0.20
2023-04-24T12:50:46.519Z,0.38
2023-04-24T12:53:16.819Z,0.40
2023-04-24T12:55:48.405Z,0.30
2023-04-24T12:58:15.376Z,0.40
2023-04-24T13:05:04.602Z,0.40
2023-04-24T13:07:44.048Z,0.38
2023-04-24T13:10:17.745Z,0.40
2023-04-24T13:12:47.127Z,0.40
2023-04-24T13:15:14.545Z,0.50
2023-04-24T13:17:44.213Z,0.28
2023-04-24T13:20:11.476Z,0.40
2023-04-24T13:22:38.517Z,0.40
2023-04-24T13:25:13.351Z,0.40
2023-04-24T13:27:40.880Z,0.50
2023-04-24T13:30:08.935Z,0.38
2023-04-24T13:32:37.763Z,0.30
2023-04-24T13:35:09.255Z,0.30
2023-04-24T13:37:38.805Z,0.32
2023-04-24T13:40:09.787Z,0.30
2023-04-24T13:42:44.961Z,0.32
2023-04-24T13:45:25.389Z,0.30
2023-04-24T13:47:55.344Z,0.30
2023-04-24T13:50:24.865Z,0.20
2023-04-24T13:52:51.727Z,0.22
2023-04-24T13:55:22.975Z,0.40
2023-04-24T13:58:05.127Z,0.30
2023-04-24T14:00:38.167Z,0.40
2023-04-24T14:03:12.900Z,0.30
2023-04-24T14:05:42.516Z,0.30
2023-04-24T14:08:10.618Z,0.30
2023-04-24T14:10:43.447Z,0.22
2023-04-24T14:13:10.457Z,0.30
2023-04-24T14:15:49.788Z,0.30
2023-04-24T14:18:20.201Z,0.40
2023-04-24T14:20:56.568Z,0.20
2023-04-24T14:23:43.065Z,0.30
2023-04-24T14:26:31.365Z,0.30
2023-04-24T14:29:13.620Z,0.40
2023-04-24T14:31:51.282Z,0.20
2023-04-24T14:34:31.307Z,0.30
2023-04-24T14:37:05.786Z,0.30
2023-04-24T14:39:32.776Z,0.30
2023-04-24T14:42:10.327Z,0.30
2023-04-24T14:44:37.194Z,0.20
2023-04-24T14:47:04.338Z,0.30
2023-04-24T14:49:52.860Z,0.35
2023-04-24T14:52:19.843Z,0.25
2023-04-24T14:54:46.757Z,0.20
2023-04-24T14:57:15.890Z,0.40
2023-04-24T14:59:52.371Z,0.30
2023-04-24T15:02:22.535Z,0.30
2023-04-24T15:04:55.185Z,0.13
2023-04-24T15:07:57.685Z,0.32
2023-04-24T15:10:30.589Z,0.40
2023-04-24T15:12:57.887Z,0.40
2023-04-24T15:15:31.350Z,0.30
2023-04-24T15:18:02.799Z,0.20
2023-04-24T15:20:35.557Z,0.30
2023-04-24T15:23:24.983Z,0.50
2023-04-24T15:26:14.945Z,0.28
2023-04-24T15:28:51.462Z,0.20
2023-04-24T15:31:21.420Z,0.30
2023-04-24T15:34:01.109Z,0.40
2023-04-24T15:36:31.043Z,0.30
2023-04-24T15:38:58.045Z,0.30
2023-04-24T15:41:29.804Z,0.50
2023-04-24T15:44:09.288Z,0.50
2023-04-24T15:46:36.971Z,0.30
2023-04-24T15:49:07.398Z,2.10
2023-04-24T15:51:41.033Z,0.50
2023-04-24T15:54:20.766Z,0.30
2023-04-24T15:57:18.004Z,0.40
2023-04-24T16:00:18.244Z,0.30
2023-04-24T16:02:45.445Z,0.40
2023-04-24T16:05:21.076Z,0.50
2023-04-24T16:07:50.404Z,0.60
2023-04-24T16:10:35.758Z,0.38
2023-04-24T16:13:19.401Z,0.30
2023-04-24T16:18:54.310Z,0.50
2023-04-24T16:21:21.384Z,0.45
2023-04-24T16:23:48.222Z,0.45
2023-04-24T16:26:15.788Z,0.30
2023-04-24T16:31:10.524Z,0.30
2023-04-24T16:33:54.512Z,0.40
2023-04-24T16:36:22.547Z,0.20
2023-04-24T16:38:51.373Z,0.50
2023-04-24T16:41:18.746Z,0.45
2023-04-24T16:43:51.843Z,0.50
2023-04-24T16:46:18.954Z,0.30
2023-04-24T16:48:52.921Z,0.32
2023-04-24T16:51:33.078Z,0.40
2023-04-24T16:54:02.117Z,0.40
2023-04-24T16:56:29.145Z,0.32
2023-04-24T16:58:58.353Z,0.50
2023-04-24T17:01:25.836Z,0.50
2023-04-24T17:03:53.157Z,0.30
2023-04-24T17:06:20.446Z,0.40
2023-04-24T17:08:47.565Z,0.47
2023-04-24T17:11:14.678Z,0.60
2023-04-24T17:13:41.497Z,0.55
2023-04-24T17:16:08.541Z,0.60
2023-04-24T17:18:35.708Z,0.50
2023-04-24T17:21:02.622Z,0.30
2023-04-24T17:23:29.483Z,0.30
2023-04-24T17:25:56.727Z,0.28
2023-04-24T17:28:33.833Z,0.90
2023-04-24T17:31:01.674Z,0.68
2023-04-24T17:33:33.376Z,0.40
2023-04-24T17:36:07.646Z,0.40
2023-04-24T17:38:35.666Z,0.40
2023-04-24T17:41:02.933Z,0.50
2023-04-24T17:43:32.522Z,0.30
2023-04-24T17:46:34.502Z,0.30
2023-04-24T17:49:10.762Z,0.30
2023-04-24T17:51:40.383Z,0.43
2023-04-24T17:54:07.320Z,0.30
2023-04-24T17:56:34.555Z,0.47
2023-04-24T17:59:01.721Z,0.45
2023-04-24T18:01:29.258Z,0.50
2023-04-24T18:11:43.498Z,0.30
2023-04-24T18:14:26.548Z,0.32
2023-04-24T18:17:40.125Z,0.28
2023-04-24T18:20:47.196Z,0.30
2023-04-24T18:23:24.147Z,0.52
2023-04-24T18:26:09.023Z,0.60
2023-04-24T18:34:31.866Z,0.57
2023-04-24T18:40:54.999Z,0.80
2023-04-24T18:44:26.057Z,0.73
2023-04-24T18:47:26.811Z,0.70
2023-04-24T18:50:37.157Z,0.70
2023-04-24T18:56:13.604Z,0.60
2023-04-24T18:59:34.865Z,0.68
2023-04-24T19:02:37.801Z,0.73
2023-04-24T19:05:35.005Z,1.10
2023-04-24T19:08:30.127Z,0.70
2023-04-24T19:12:03.098Z,0.60
2023-04-24T19:15:08.122Z,0.68
2023-04-24T19:17:49.909Z,0.70
2023-04-24T19:25:07.461Z,0.77
2023-04-24T19:31:53.002Z,0.75
2023-04-24T19:49:56.242Z,0.80
2023-04-24T21:02:02.321Z,0.98
2023-04-24T21:53:07.468Z,0.80
2023-04-24T21:56:29.691Z,0.60
2023-04-24T22:05:51.472Z,0.60
2023-04-24T22:18:40.105Z,0.75
2023-04-24T22:28:09.506Z,0.90
2023-04-24T22:31:04.511Z,0.70
2023-04-24T22:34:13.639Z,0.60
2023-04-24T22:37:04.053Z,0.75
2023-04-24T22:54:29.047Z,0.50
2023-04-24T22:57:14.346Z,0.60
2023-04-24T22:59:55.878Z,0.68
2023-04-24T23:06:49.108Z,0.52
2023-04-24T23:09:57.294Z,0.47
2023-04-24T23:12:51.334Z,0.63
2023-04-24T23:22:13.076Z,0.60
2023-04-24T23:25:40.861Z,0.50
2023-04-24T23:28:56.678Z,0.63
2023-04-24T23:31:57.057Z,0.80
2023-04-24T23:40:55.729Z,0.50
2023-04-24T23:50:58.706Z,0.73
